Taranto — V2AK2 — position and weather

sailwx.info

Track history (hours):
 
Tides and Currents Weather Stations Pressure Air Temp Water Temp Dewpoint Dewpoint Depression Visibility Wind Speed Wind Dir Waves Ship Positions

Taranto

Last reported at 2015-Aug-23 09:06 UTC. Time now 2015-Aug-29 07:23 UTC.
Position N 50°36' E 000°17'.

Length 88 m; draft 4.8 m.

Type: Cargo ship. MMSI: 304010614.

Date/timePositionNaut miles runAvg speedWind from/ knotsBaromVisibWave heightAir tempDewpointWater temp
2015-Aug-23 09:06N 50°36' E 000°17'710.4
2015-Aug-23 08:26N 50°37' E 000°28'910.0
2015-Aug-23 07:33N 50°41' E 000°40'12 9.7
2015-Aug-23 06:17N 50°49' E 000°56'16 8.9
2015-Aug-23 04:28N 50°59' E 001°16'8 8.4
2015-Aug-23 03:33N 51°04' E 001°25'9 9.5
2015-Aug-23 02:33N 51°10' E 001°37'1110.6
2015-Aug-23 01:33N 51°17' E 001°49'1111.3
2015-Aug-23 00:34N 51°25' E 002°01'1010.4
2015-Aug-22 23:33N 51°21' E 002°17'1111.0
2015-Aug-22 22:33N 51°23' E 002°34'10 9.8
2015-Aug-22 21:33N 51°23' E 002°50'2110.3
2015-Aug-22 19:29N 51°25' E 003°23'9 9.2
2015-Aug-22 18:33N 51°25' E 003°37'9 8.9
2015-Aug-22 17:33N 51°20' E 003°49'2 2.3
2015-Aug-22 16:33N 51°18' E 003°50'9 8.8
2015-Aug-22 15:34N 51°09' E 003°47'4 4.3
2015-Aug-22 14:31N 51°05' E 003°44'0 0.0
2015-Aug-22 13:32N 51°05' E 003°44'0 0.0
2015-Aug-22 12:31N 51°05' E 003°44'0 0.0
2015-Aug-22 11:31N 51°05' E 003°44'0 0.0
2015-Aug-22 10:31N 51°05' E 003°44'0 0.0
2015-Aug-22 09:31N 51°05' E 003°44'0 0.0
2015-Aug-22 08:31N 51°05' E 003°44'0 0.0
2015-Aug-22 07:31N 51°05' E 003°44'0 0.0
2015-Aug-22 06:31N 51°05' E 003°44'0 0.0
2015-Aug-22 05:31N 51°05' E 003°44'0 0.0
2015-Aug-22 04:31N 51°05' E 003°44'0 0.0
2015-Aug-22 03:31N 51°05' E 003°44'0 0.0
2015-Aug-22 02:31N 51°05' E 003°44'0 0.0
2015-Aug-22 01:31N 51°05' E 003°44'0 0.0
2015-Aug-22 00:31N 51°05' E 003°44'0 0.0
2015-Aug-21 23:31N 51°05' E 003°44'0 0.0
2015-Aug-21 22:31N 51°05' E 003°44'0 0.0
2015-Aug-21 21:31N 51°05' E 003°44'0 0.0
2015-Aug-21 20:31N 51°05' E 003°44'0 0.0
2015-Aug-21 19:32N 51°05' E 003°44'0 0.0
2015-Aug-21 18:31N 51°05' E 003°44'0 0.0
2015-Aug-21 17:32N 51°05' E 003°44'0 0.0
2015-Aug-21 16:29N 51°05' E 003°44'0 0.0
2015-Aug-21 15:31N 51°05' E 003°44'1 0.6
2015-Aug-21 14:33N 51°06' E 003°44'8 8.4
2015-Aug-21 13:33N 51°14' E 003°48'6 5.8
2015-Aug-21 12:33N 51°20' E 003°49'2 1.7
2015-Aug-21 11:34N 51°21' E 003°47'9 9.1
2015-Aug-21 10:33N 51°26' E 003°35'9 8.0
2015-Aug-21 09:29N 51°32' E 003°25'79 8.7
2015-Aug-21 00:26N 52°33' E 002°05'2312.4
2015-Aug-20 22:33N 52°52' E 001°42'1312.7
2015-Aug-20 21:33N 53°01' E 001°27'5811.2
2015-Aug-20 16:19N 53°46' E 000°24'810.2
2015-Aug-20 15:33N 53°52' E 000°17'10 9.7
2015-Aug-20 14:33N 53°60' E 000°07'9 9.3
2015-Aug-20 13:34N 54°07' W 000°02'9 8.9
2015-Aug-20 12:34N 54°15' W 000°11'9 9.4
2015-Aug-20 11:34N 54°22' W 000°20'10 9.8
2015-Aug-20 10:32N 54°30' W 000°30'1110.5
2015-Aug-20 09:33N 54°37' W 000°45'1111.0
2015-Aug-20 08:33N 54°43' W 001°00'1111.2
2015-Aug-20 07:33N 54°49' W 001°16'2 0.1
2015-Aug-19 15:27N 54°50' W 001°20'0 0.0
2015-Aug-19 13:15N 54°50' W 001°20'0 0.0
2015-Aug-19 10:09N 54°50' W 001°20'0 0.0
2015-Aug-19 09:33N 54°50' W 001°20'0 0.0
2015-Aug-18 15:09N 54°50' W 001°20'0 0.0
2015-Aug-18 14:27N 54°50' W 001°20'0 0.0
2015-Aug-18 13:12N 54°50' W 001°20'0 0.0
2015-Aug-18 11:33N 54°50' W 001°20'0 0.0
2015-Aug-18 09:33N 54°50' W 001°20'0 0.0
2015-Aug-17 17:33N 54°50' W 001°20'0 0.3
2015-Aug-17 16:32N 54°50' W 001°19'6 5.6
2015-Aug-17 15:33N 54°47' W 001°11'6 6.5
2015-Aug-17 14:33N 54°43' W 001°02'7 7.1
2015-Aug-17 13:33N 54°40' W 000°52'8 7.8
2015-Aug-17 12:33N 54°35' W 000°41'8 8.3
2015-Aug-17 11:33N 54°30' W 000°30'8 8.3
2015-Aug-17 10:33N 54°23' W 000°22'8 7.8
2015-Aug-17 09:33N 54°17' W 000°14'8 8.1
2015-Aug-17 08:33N 54°10' W 000°05'9 8.3
2015-Aug-17 07:31N 54°03' E 000°03'8 8.2
2015-Aug-17 06:33N 53°57' E 000°11'8 8.5
2015-Aug-17 05:33N 53°50' E 000°20'8 8.0
2015-Aug-17 04:33N 53°44' E 000°28'50 9.6
2015-Aug-16 23:20N 53°01' E 001°12'7 9.1
2015-Aug-16 22:33N 52°58' E 001°23'8 7.9
2015-Aug-16 21:33N 52°53' E 001°34'17 7.4
2015-Aug-16 19:16N 52°43' E 001°56'94 9.6
2015-Aug-16 09:33N 51°29' E 003°30'9 8.8
2015-Aug-16 08:33N 51°24' E 003°41'7 6.3
2015-Aug-16 07:29N 51°20' E 003°49'7 7.2
2015-Aug-16 06:33N 51°13' E 003°48'2 2.2
2015-Aug-16 05:31N 51°11' E 003°48'0 0.0
2015-Aug-16 04:31N 51°11' E 003°48'0 0.0
2015-Aug-16 03:31N 51°11' E 003°48'0 0.0
2015-Aug-16 02:33N 51°11' E 003°48'0 0.0
2015-Aug-16 01:33N 51°11' E 003°48'0 0.0
2015-Aug-16 00:33N 51°11' E 003°48'0 0.0
2015-Aug-15 23:33N 51°11' E 003°48'0 0.0
2015-Aug-15 22:33N 51°11' E 003°48'0 0.0
2015-Aug-15 21:33N 51°11' E 003°48'0 0.0
2015-Aug-15 20:33N 51°11' E 003°48'0 0.0
2015-Aug-15 19:33N 51°11' E 003°48'0 0.0
2015-Aug-15 18:33N 51°11' E 003°48'0 0.0
2015-Aug-15 17:32N 51°11' E 003°48'0 0.0
2015-Aug-15 16:33N 51°11' E 003°48'0 0.0
2015-Aug-15 15:33N 51°11' E 003°48'0 0.0
2015-Aug-15 14:33N 51°11' E 003°48'0 0.0
2015-Aug-15 13:33N 51°11' E 003°48'0 0.0
2015-Aug-15 12:33N 51°11' E 003°48'0 0.0
2015-Aug-15 11:33N 51°11' E 003°48'0 0.0
2015-Aug-15 10:34N 51°11' E 003°48'0 0.0
2015-Aug-15 09:33N 51°11' E 003°48'0 0.0
2015-Aug-15 08:33N 51°11' E 003°48'0 0.0
2015-Aug-15 07:33N 51°11' E 003°48'0 0.0
2015-Aug-15 06:33N 51°11' E 003°48'0 0.0
2015-Aug-15 05:33N 51°11' E 003°48'0 0.0
2015-Aug-15 04:33N 51°11' E 003°48'1 1.3
2015-Aug-15 03:33N 51°09' E 003°47'0 0.0
2015-Aug-15 02:32N 51°09' E 003°47'0 0.0
2015-Aug-15 01:33N 51°09' E 003°47'0 0.0
2015-Aug-15 00:32N 51°09' E 003°47'0 0.0
2015-Aug-14 23:33N 51°09' E 003°47'0 0.0
2015-Aug-14 22:33N 51°09' E 003°47'0 0.0
2015-Aug-14 21:33N 51°09' E 003°47'0 0.0
2015-Aug-14 20:30N 51°09' E 003°47'0 0.0
2015-Aug-14 19:33N 51°09' E 003°47'0 0.0
2015-Aug-14 18:33N 51°09' E 003°47'0 0.0
2015-Aug-14 17:33N 51°09' E 003°47'0 0.0
2015-Aug-14 16:33N 51°09' E 003°47'0 0.0
2015-Aug-14 15:33N 51°09' E 003°47'0 0.0
2015-Aug-14 14:33N 51°09' E 003°47'0 0.0
2015-Aug-14 13:33N 51°09' E 003°47'4 3.7
2015-Aug-14 12:33N 51°13' E 003°48'7 6.7
2015-Aug-14 11:33N 51°20' E 003°49'6 5.6
2015-Aug-14 10:33N 51°23' E 003°42'1010.2
2015-Aug-14 09:33N 51°25' E 003°26'2010.1
2015-Aug-14 07:33N 51°22' E 002°54'20 9.3
2015-Aug-14 05:23N 51°20' E 002°22'9 9.8
2015-Aug-14 04:30N 51°19' E 002°08'1010.3
2015-Aug-14 03:33N 51°26' E 001°57'1010.2
2015-Aug-14 02:33N 51°29' E 001°41'1211.7
2015-Aug-14 01:33N 51°29' E 001°22'1211.6
2015-Aug-14 00:33N 51°29' E 001°04'12 9.6
2015-Aug-13 23:20N 51°29' E 000°45'7 9.2
2015-Aug-13 22:33N 51°30' E 000°33'8 7.9
2015-Aug-13 21:34N 51°27' E 000°22'7 7.2
2015-Aug-13 20:33N 51°29' E 000°11'0 0.4
2015-Aug-13 19:32N 51°30' E 000°10'0 0.0
2015-Aug-13 18:32N 51°30' E 000°10'0 0.0
2015-Aug-13 17:32N 51°30' E 000°10'0 0.0
2015-Aug-13 16:32N 51°30' E 000°10'0 0.0
2015-Aug-13 15:32N 51°30' E 000°10'0 0.0
2015-Aug-13 14:32N 51°30' E 000°10'0 0.0
2015-Aug-13 13:32N 51°30' E 000°10'0 0.0
2015-Aug-13 12:32N 51°30' E 000°10'0 0.0
2015-Aug-13 11:32N 51°30' E 000°10'0 0.0
2015-Aug-13 10:32N 51°30' E 000°10'0 0.0
2015-Aug-13 09:32N 51°30' E 000°10'  
Track history (hours):
 
Tides and Currents Weather Stations Pressure Air Temp Water Temp Dewpoint Dewpoint Depression Visibility Wind Speed Wind Dir Waves Ship Positions

Taranto

Last reported at 2015-Aug-23 09:06 UTC. Time now 2015-Aug-29 07:23 UTC.
Position N 50°36' E 000°17'.

Length 88 m; draft 4.8 m.

Type: Cargo ship. MMSI: 304010614.

Date/timePositionNaut miles runAvg speedWind from/ knotsBaromVisibWave heightAir tempDewpointWater temp
2015-Aug-23 09:06N 50°36' E 000°17'710.4
2015-Aug-23 08:26N 50°37' E 000°28'910.0
2015-Aug-23 07:33N 50°41' E 000°40'12 9.7
2015-Aug-23 06:17N 50°49' E 000°56'16 8.9
2015-Aug-23 04:28N 50°59' E 001°16'8 8.4
2015-Aug-23 03:33N 51°04' E 001°25'9 9.5
2015-Aug-23 02:33N 51°10' E 001°37'1110.6
2015-Aug-23 01:33N 51°17' E 001°49'1111.3
2015-Aug-23 00:34N 51°25' E 002°01'1010.4
2015-Aug-22 23:33N 51°21' E 002°17'1111.0
2015-Aug-22 22:33N 51°23' E 002°34'10 9.8
2015-Aug-22 21:33N 51°23' E 002°50'2110.3
2015-Aug-22 19:29N 51°25' E 003°23'9 9.2
2015-Aug-22 18:33N 51°25' E 003°37'9 8.9
2015-Aug-22 17:33N 51°20' E 003°49'2 2.3
2015-Aug-22 16:33N 51°18' E 003°50'9 8.8
2015-Aug-22 15:34N 51°09' E 003°47'4 4.3
2015-Aug-22 14:31N 51°05' E 003°44'0 0.0
2015-Aug-22 13:32N 51°05' E 003°44'0 0.0
2015-Aug-22 12:31N 51°05' E 003°44'0 0.0
2015-Aug-22 11:31N 51°05' E 003°44'0 0.0
2015-Aug-22 10:31N 51°05' E 003°44'0 0.0
2015-Aug-22 09:31N 51°05' E 003°44'0 0.0
2015-Aug-22 08:31N 51°05' E 003°44'0 0.0
2015-Aug-22 07:31N 51°05' E 003°44'0 0.0
2015-Aug-22 06:31N 51°05' E 003°44'0 0.0
2015-Aug-22 05:31N 51°05' E 003°44'0 0.0
2015-Aug-22 04:31N 51°05' E 003°44'0 0.0
2015-Aug-22 03:31N 51°05' E 003°44'0 0.0
2015-Aug-22 02:31N 51°05' E 003°44'0 0.0
2015-Aug-22 01:31N 51°05' E 003°44'0 0.0
2015-Aug-22 00:31N 51°05' E 003°44'0 0.0
2015-Aug-21 23:31N 51°05' E 003°44'0 0.0
2015-Aug-21 22:31N 51°05' E 003°44'0 0.0
2015-Aug-21 21:31N 51°05' E 003°44'0 0.0
2015-Aug-21 20:31N 51°05' E 003°44'0 0.0
2015-Aug-21 19:32N 51°05' E 003°44'0 0.0
2015-Aug-21 18:31N 51°05' E 003°44'0 0.0
2015-Aug-21 17:32N 51°05' E 003°44'0 0.0
2015-Aug-21 16:29N 51°05' E 003°44'0 0.0
2015-Aug-21 15:31N 51°05' E 003°44'1 0.6
2015-Aug-21 14:33N 51°06' E 003°44'8 8.4
2015-Aug-21 13:33N 51°14' E 003°48'6 5.8
2015-Aug-21 12:33N 51°20' E 003°49'2 1.7
2015-Aug-21 11:34N 51°21' E 003°47'9 9.1
2015-Aug-21 10:33N 51°26' E 003°35'9 8.0
2015-Aug-21 09:29N 51°32' E 003°25'79 8.7
2015-Aug-21 00:26N 52°33' E 002°05'2312.4
2015-Aug-20 22:33N 52°52' E 001°42'1312.7
2015-Aug-20 21:33N 53°01' E 001°27'5811.2
2015-Aug-20 16:19N 53°46' E 000°24'810.2
2015-Aug-20 15:33N 53°52' E 000°17'10 9.7
2015-Aug-20 14:33N 53°60' E 000°07'9 9.3
2015-Aug-20 13:34N 54°07' W 000°02'9 8.9
2015-Aug-20 12:34N 54°15' W 000°11'9 9.4
2015-Aug-20 11:34N 54°22' W 000°20'10 9.8
2015-Aug-20 10:32N 54°30' W 000°30'1110.5
2015-Aug-20 09:33N 54°37' W 000°45'1111.0
2015-Aug-20 08:33N 54°43' W 001°00'1111.2
2015-Aug-20 07:33N 54°49' W 001°16'2 0.1
2015-Aug-19 15:27N 54°50' W 001°20'0 0.0
2015-Aug-19 13:15N 54°50' W 001°20'0 0.0
2015-Aug-19 10:09N 54°50' W 001°20'0 0.0
2015-Aug-19 09:33N 54°50' W 001°20'0 0.0
2015-Aug-18 15:09N 54°50' W 001°20'0 0.0
2015-Aug-18 14:27N 54°50' W 001°20'0 0.0
2015-Aug-18 13:12N 54°50' W 001°20'0 0.0
2015-Aug-18 11:33N 54°50' W 001°20'0 0.0
2015-Aug-18 09:33N 54°50' W 001°20'0 0.0
2015-Aug-17 17:33N 54°50' W 001°20'0 0.3
2015-Aug-17 16:32N 54°50' W 001°19'6 5.6
2015-Aug-17 15:33N 54°47' W 001°11'6 6.5
2015-Aug-17 14:33N 54°43' W 001°02'7 7.1
2015-Aug-17 13:33N 54°40' W 000°52'8 7.8
2015-Aug-17 12:33N 54°35' W 000°41'8 8.3
2015-Aug-17 11:33N 54°30' W 000°30'8 8.3
2015-Aug-17 10:33N 54°23' W 000°22'8 7.8
2015-Aug-17 09:33N 54°17' W 000°14'8 8.1
2015-Aug-17 08:33N 54°10' W 000°05'9 8.3
2015-Aug-17 07:31N 54°03' E 000°03'8 8.2
2015-Aug-17 06:33N 53°57' E 000°11'8 8.5
2015-Aug-17 05:33N 53°50' E 000°20'8 8.0
2015-Aug-17 04:33N 53°44' E 000°28'50 9.6
2015-Aug-16 23:20N 53°01' E 001°12'7 9.1
2015-Aug-16 22:33N 52°58' E 001°23'8 7.9
2015-Aug-16 21:33N 52°53' E 001°34'17 7.4
2015-Aug-16 19:16N 52°43' E 001°56'94 9.6
2015-Aug-16 09:33N 51°29' E 003°30'9 8.8
2015-Aug-16 08:33N 51°24' E 003°41'7 6.3
2015-Aug-16 07:29N 51°20' E 003°49'7 7.2
2015-Aug-16 06:33N 51°13' E 003°48'2 2.2
2015-Aug-16 05:31N 51°11' E 003°48'0 0.0
2015-Aug-16 04:31N 51°11' E 003°48'0 0.0
2015-Aug-16 03:31N 51°11' E 003°48'0 0.0
2015-Aug-16 02:33N 51°11' E 003°48'0 0.0
2015-Aug-16 01:33N 51°11' E 003°48'0 0.0
2015-Aug-16 00:33N 51°11' E 003°48'0 0.0
2015-Aug-15 23:33N 51°11' E 003°48'0 0.0
2015-Aug-15 22:33N 51°11' E 003°48'0 0.0
2015-Aug-15 21:33N 51°11' E 003°48'0 0.0
2015-Aug-15 20:33N 51°11' E 003°48'0 0.0
2015-Aug-15 19:33N 51°11' E 003°48'0 0.0
2015-Aug-15 18:33N 51°11' E 003°48'0 0.0
2015-Aug-15 17:32N 51°11' E 003°48'0 0.0
2015-Aug-15 16:33N 51°11' E 003°48'0 0.0
2015-Aug-15 15:33N 51°11' E 003°48'0 0.0
2015-Aug-15 14:33N 51°11' E 003°48'0 0.0
2015-Aug-15 13:33N 51°11' E 003°48'0 0.0
2015-Aug-15 12:33N 51°11' E 003°48'0 0.0
2015-Aug-15 11:33N 51°11' E 003°48'0 0.0
2015-Aug-15 10:34N 51°11' E 003°48'0 0.0
2015-Aug-15 09:33N 51°11' E 003°48'0 0.0
2015-Aug-15 08:33N 51°11' E 003°48'0 0.0
2015-Aug-15 07:33N 51°11' E 003°48'0 0.0
2015-Aug-15 06:33N 51°11' E 003°48'0 0.0
2015-Aug-15 05:33N 51°11' E 003°48'0 0.0
2015-Aug-15 04:33N 51°11' E 003°48'1 1.3
2015-Aug-15 03:33N 51°09' E 003°47'0 0.0
2015-Aug-15 02:32N 51°09' E 003°47'0 0.0
2015-Aug-15 01:33N 51°09' E 003°47'0 0.0
2015-Aug-15 00:32N 51°09' E 003°47'0 0.0
2015-Aug-14 23:33N 51°09' E 003°47'0 0.0
2015-Aug-14 22:33N 51°09' E 003°47'0 0.0
2015-Aug-14 21:33N 51°09' E 003°47'0 0.0
2015-Aug-14 20:30N 51°09' E 003°47'0 0.0
2015-Aug-14 19:33N 51°09' E 003°47'0 0.0
2015-Aug-14 18:33N 51°09' E 003°47'0 0.0
2015-Aug-14 17:33N 51°09' E 003°47'0 0.0
2015-Aug-14 16:33N 51°09' E 003°47'0 0.0
2015-Aug-14 15:33N 51°09' E 003°47'0 0.0
2015-Aug-14 14:33N 51°09' E 003°47'0 0.0
2015-Aug-14 13:33N 51°09' E 003°47'4 3.7
2015-Aug-14 12:33N 51°13' E 003°48'7 6.7
2015-Aug-14 11:33N 51°20' E 003°49'6 5.6
2015-Aug-14 10:33N 51°23' E 003°42'1010.2
2015-Aug-14 09:33N 51°25' E 003°26'2010.1
2015-Aug-14 07:33N 51°22' E 002°54'20 9.3
2015-Aug-14 05:23N 51°20' E 002°22'9 9.8
2015-Aug-14 04:30N 51°19' E 002°08'1010.3
2015-Aug-14 03:33N 51°26' E 001°57'1010.2
2015-Aug-14 02:33N 51°29' E 001°41'1211.7
2015-Aug-14 01:33N 51°29' E 001°22'1211.6
2015-Aug-14 00:33N 51°29' E 001°04'12 9.6
2015-Aug-13 23:20N 51°29' E 000°45'7 9.2
2015-Aug-13 22:33N 51°30' E 000°33'8 7.9
2015-Aug-13 21:34N 51°27' E 000°22'7 7.2
2015-Aug-13 20:33N 51°29' E 000°11'0 0.4
2015-Aug-13 19:32N 51°30' E 000°10'0 0.0
2015-Aug-13 18:32N 51°30' E 000°10'0 0.0
2015-Aug-13 17:32N 51°30' E 000°10'0 0.0
2015-Aug-13 16:32N 51°30' E 000°10'0 0.0
2015-Aug-13 15:32N 51°30' E 000°10'0 0.0
2015-Aug-13 14:32N 51°30' E 000°10'0 0.0
2015-Aug-13 13:32N 51°30' E 000°10'0 0.0
2015-Aug-13 12:32N 51°30' E 000°10'0 0.0
2015-Aug-13 11:32N 51°30' E 000°10'0 0.0
2015-Aug-13 10:32N 51°30' E 000°10'0 0.0
2015-Aug-13 09:32N 51°30' E 000°10'  

Dump ship's entire track history